sensor_id;sensor_type;location;lat;lon;timestamp;P1;durP1;ratioP1;P2;durP2;ratioP2
57101;SDS011;42982;54.558;18.508;2022-08-25T00:00:48;9.52;;;2.83;;
57101;SDS011;42982;54.558;18.508;2022-08-25T00:01:52;6.00;;;2.53;;
57101;SDS011;42982;54.558;18.508;2022-08-25T00:02:58;9.70;;;2.90;;
57101;SDS011;42982;54.558;18.508;2022-08-25T00:04:01;10.40;;;2.95;;
57101;SDS011;42982;54.558;18.508;2022-08-25T00:05:04;8.80;;;2.80;;
57101;SDS011;42982;54.558;18.508;2022-08-25T00:06:09;7.82;;;2.80;;
57101;SDS011;42982;54.558;18.508;2022-08-25T00:07:12;9.82;;;2.90;;
57101;SDS011;42982;54.558;18.508;2022-08-25T00:08:19;10.35;;;3.20;;
57101;SDS011;42982;54.558;18.508;2022-08-25T00:09:22;7.22;;;2.83;;
57101;SDS011;42982;54.558;18.508;2022-08-25T00:10:25;11.63;;;2.83;;
57101;SDS011;42982;54.558;18.508;2022-08-25T00:11:30;10.18;;;2.75;;
57101;SDS011;42982;54.558;18.508;2022-08-25T00:12:37;9.38;;;3.10;;
57101;SDS011;42982;54.558;18.508;2022-08-25T00:13:47;6.88;;;3.38;;
57101;SDS011;42982;54.558;18.508;2022-08-25T00:14:51;8.13;;;2.88;;
57101;SDS011;42982;54.558;18.508;2022-08-25T00:15:53;9.07;;;3.15;;
57101;SDS011;42982;54.558;18.508;2022-08-25T00:16:58;7.90;;;3.30;;
57101;SDS011;42982;54.558;18.508;2022-08-25T00:18:03;13.13;;;3.83;;
57101;SDS011;42982;54.558;18.508;2022-08-25T00:19:18;12.13;;;3.83;;
57101;SDS011;42982;54.558;18.508;2022-08-25T00:20:23;12.32;;;3.17;;
57101;SDS011;42982;54.558;18.508;2022-08-25T00:21:26;15.10;;;3.10;;
57101;SDS011;42982;54.558;18.508;2022-08-25T00:22:27;5.03;;;3.38;;
57101;SDS011;42982;54.558;18.508;2022-08-25T00:23:30;11.82;;;3.92;;
57101;SDS011;42982;54.558;18.508;2022-08-25T00:24:34;10.75;;;3.38;;
57101;SDS011;42982;54.558;18.508;2022-08-25T00:25:36;10.25;;;4.10;;
57101;SDS011;42982;54.558;18.508;2022-08-25T00:26:39;10.07;;;3.47;;
57101;SDS011;42982;54.558;18.508;2022-08-25T00:27:45;6.22;;;3.15;;
57101;SDS011;42982;54.558;18.508;2022-08-25T00:28:51;7.22;;;3.75;;
57101;SDS011;42982;54.558;18.508;2022-08-25T00:29:56;8.85;;;3.50;;
57101;SDS011;42982;54.558;18.508;2022-08-25T00:31:03;14.88;;;4.80;;
57101;SDS011;42982;54.558;18.508;2022-08-25T00:32:05;9.65;;;3.65;;
57101;SDS011;42982;54.558;18.508;2022-08-25T00:33:09;8.60;;;3.72;;
57101;SDS011;42982;54.558;18.508;2022-08-25T00:34:16;8.15;;;3.58;;
57101;SDS011;42982;54.558;18.508;2022-08-25T00:35:21;13.75;;;3.63;;
57101;SDS011;42982;54.558;18.508;2022-08-25T00:36:24;8.77;;;3.40;;
57101;SDS011;42982;54.558;18.508;2022-08-25T00:37:28;16.85;;;3.70;;
57101;SDS011;42982;54.558;18.508;2022-08-25T00:38:33;10.82;;;4.18;;
57101;SDS011;42982;54.558;18.508;2022-08-25T00:39:35;8.25;;;3.05;;
57101;SDS011;42982;54.558;18.508;2022-08-25T00:40:40;8.68;;;3.78;;
57101;SDS011;42982;54.558;18.508;2022-08-25T00:41:44;11.40;;;4.15;;
57101;SDS011;42982;54.558;18.508;2022-08-25T00:42:49;7.20;;;3.60;;
57101;SDS011;42982;54.558;18.508;2022-08-25T00:44:52;12.32;;;4.10;;
57101;SDS011;42982;54.558;18.508;2022-08-25T00:46:00;9.63;;;3.80;;
57101;SDS011;42982;54.558;18.508;2022-08-25T00:47:05;13.93;;;3.95;;
57101;SDS011;42982;54.558;18.508;2022-08-25T00:48:09;8.30;;;3.40;;
57101;SDS011;42982;54.558;18.508;2022-08-25T00:49:16;12.52;;;4.88;;
57101;SDS011;42982;54.558;18.508;2022-08-25T00:50:21;9.38;;;3.40;;
57101;SDS011;42982;54.558;18.508;2022-08-25T00:51:36;11.05;;;3.47;;
57101;SDS011;42982;54.558;18.508;2022-08-25T00:52:47;14.85;;;3.65;;
57101;SDS011;42982;54.558;18.508;2022-08-25T00:53:51;15.55;;;4.20;;
57101;SDS011;42982;54.558;18.508;2022-08-25T00:54:54;19.67;;;4.50;;
57101;SDS011;42982;54.558;18.508;2022-08-25T00:56:00;8.40;;;3.80;;
57101;SDS011;42982;54.558;18.508;2022-08-25T00:57:07;15.10;;;3.50;;
57101;SDS011;42982;54.558;18.508;2022-08-25T00:58:21;10.55;;;3.85;;
57101;SDS011;42982;54.558;18.508;2022-08-25T00:59:25;10.15;;;3.50;;
57101;SDS011;42982;54.558;18.508;2022-08-25T01:00:35;9.20;;;3.25;;
57101;SDS011;42982;54.558;18.508;2022-08-25T01:01:47;10.75;;;3.58;;
57101;SDS011;42982;54.558;18.508;2022-08-25T01:02:54;9.30;;;3.40;;
57101;SDS011;42982;54.558;18.508;2022-08-25T01:04:00;8.45;;;3.67;;
57101;SDS011;42982;54.558;18.508;2022-08-25T01:05:02;13.13;;;3.60;;
57101;SDS011;42982;54.558;18.508;2022-08-25T01:06:05;5.90;;;3.65;;
57101;SDS011;42982;54.558;18.508;2022-08-25T01:07:10;10.85;;;4.10;;
57101;SDS011;42982;54.558;18.508;2022-08-25T01:08:17;13.23;;;4.05;;
57101;SDS011;42982;54.558;18.508;2022-08-25T01:09:27;10.93;;;4.20;;
57101;SDS011;42982;54.558;18.508;2022-08-25T01:10:33;12.63;;;3.80;;
57101;SDS011;42982;54.558;18.508;2022-08-25T01:11:38;9.05;;;4.00;;
57101;SDS011;42982;54.558;18.508;2022-08-25T01:12:48;9.95;;;4.05;;
57101;SDS011;42982;54.558;18.508;2022-08-25T01:14:01;12.55;;;3.70;;
57101;SDS011;42982;54.558;18.508;2022-08-25T01:15:07;11.73;;;3.70;;
57101;SDS011;42982;54.558;18.508;2022-08-25T01:16:13;7.90;;;3.83;;
57101;SDS011;42982;54.558;18.508;2022-08-25T01:17:15;12.48;;;4.07;;
57101;SDS011;42982;54.558;18.508;2022-08-25T01:18:17;11.00;;;3.92;;
57101;SDS011;42982;54.558;18.508;2022-08-25T01:19:21;11.82;;;3.80;;
57101;SDS011;42982;54.558;18.508;2022-08-25T01:20:26;12.13;;;4.25;;
57101;SDS011;42982;54.558;18.508;2022-08-25T01:21:30;12.07;;;4.13;;
57101;SDS011;42982;54.558;18.508;2022-08-25T01:22:42;8.85;;;3.97;;
57101;SDS011;42982;54.558;18.508;2022-08-25T01:23:45;9.63;;;3.90;;
57101;SDS011;42982;54.558;18.508;2022-08-25T01:25:04;11.27;;;4.07;;
57101;SDS011;42982;54.558;18.508;2022-08-25T01:27:24;13.52;;;4.07;;
57101;SDS011;42982;54.558;18.508;2022-08-25T01:28:33;10.50;;;4.38;;
57101;SDS011;42982;54.558;18.508;2022-08-25T01:29:56;9.20;;;3.97;;
57101;SDS011;42982;54.558;18.508;2022-08-25T01:31:02;12.98;;;4.30;;
57101;SDS011;42982;54.558;18.508;2022-08-25T01:32:08;10.52;;;4.15;;
57101;SDS011;42982;54.558;18.508;2022-08-25T01:33:12;11.15;;;4.85;;
57101;SDS011;42982;54.558;18.508;2022-08-25T01:34:23;15.60;;;4.70;;
57101;SDS011;42982;54.558;18.508;2022-08-25T01:35:29;11.82;;;4.07;;
57101;SDS011;42982;54.558;18.508;2022-08-25T01:36:40;18.67;;;4.40;;
57101;SDS011;42982;54.558;18.508;2022-08-25T01:37:43;10.73;;;3.95;;
57101;SDS011;42982;54.558;18.508;2022-08-25T01:38:48;13.35;;;4.15;;
57101;SDS011;42982;54.558;18.508;2022-08-25T01:39:53;14.63;;;4.40;;
57101;SDS011;42982;54.558;18.508;2022-08-25T01:40:59;13.35;;;4.47;;
57101;SDS011;42982;54.558;18.508;2022-08-25T01:44:09;11.13;;;4.78;;
57101;SDS011;42982;54.558;18.508;2022-08-25T01:45:11;11.32;;;4.38;;
57101;SDS011;42982;54.558;18.508;2022-08-25T01:46:12;16.15;;;4.63;;
57101;SDS011;42982;54.558;18.508;2022-08-25T01:47:14;13.60;;;4.68;;
57101;SDS011;42982;54.558;18.508;2022-08-25T01:48:18;10.40;;;4.45;;
57101;SDS011;42982;54.558;18.508;2022-08-25T01:49:23;8.65;;;5.00;;
57101;SDS011;42982;54.558;18.508;2022-08-25T01:50:26;10.23;;;4.80;;
57101;SDS011;42982;54.558;18.508;2022-08-25T01:51:38;12.23;;;4.90;;
57101;SDS011;42982;54.558;18.508;2022-08-25T01:54:08;16.13;;;5.90;;
57101;SDS011;42982;54.558;18.508;2022-08-25T01:55:12;13.18;;;5.38;;
57101;SDS011;42982;54.558;18.508;2022-08-25T01:56:14;15.60;;;5.40;;
57101;SDS011;42982;54.558;18.508;2022-08-25T01:57:21;10.15;;;5.32;;
57101;SDS011;42982;54.558;18.508;2022-08-25T01:58:27;13.77;;;6.28;;
57101;SDS011;42982;54.558;18.508;2022-08-25T01:59:30;11.93;;;5.35;;
57101;SDS011;42982;54.558;18.508;2022-08-25T02:00:33;14.20;;;5.95;;
57101;SDS011;42982;54.558;18.508;2022-08-25T02:01:37;13.73;;;5.40;;
57101;SDS011;42982;54.558;18.508;2022-08-25T02:02:40;15.35;;;5.30;;
57101;SDS011;42982;54.558;18.508;2022-08-25T02:03:42;9.15;;;5.22;;
57101;SDS011;42982;54.558;18.508;2022-08-25T02:04:46;17.30;;;5.63;;
57101;SDS011;42982;54.558;18.508;2022-08-25T02:05:48;12.02;;;5.10;;
57101;SDS011;42982;54.558;18.508;2022-08-25T02:06:56;9.75;;;5.18;;
57101;SDS011;42982;54.558;18.508;2022-08-25T02:08:00;17.58;;;5.63;;
57101;SDS011;42982;54.558;18.508;2022-08-25T02:09:06;16.98;;;6.07;;
57101;SDS011;42982;54.558;18.508;2022-08-25T02:10:10;12.05;;;5.20;;
57101;SDS011;42982;54.558;18.508;2022-08-25T02:11:13;15.93;;;5.63;;
57101;SDS011;42982;54.558;18.508;2022-08-25T02:12:19;15.55;;;5.00;;
57101;SDS011;42982;54.558;18.508;2022-08-25T02:13:22;13.70;;;5.20;;
57101;SDS011;42982;54.558;18.508;2022-08-25T02:14:24;11.55;;;5.28;;
57101;SDS011;42982;54.558;18.508;2022-08-25T02:15:29;11.13;;;5.00;;
57101;SDS011;42982;54.558;18.508;2022-08-25T02:16:32;11.73;;;4.95;;
57101;SDS011;42982;54.558;18.508;2022-08-25T02:17:36;13.02;;;5.30;;
57101;SDS011;42982;54.558;18.508;2022-08-25T02:18:38;10.57;;;5.18;;
57101;SDS011;42982;54.558;18.508;2022-08-25T02:19:40;15.85;;;5.45;;
57101;SDS011;42982;54.558;18.508;2022-08-25T02:20:45;9.13;;;4.90;;
57101;SDS011;42982;54.558;18.508;2022-08-25T02:21:47;11.25;;;4.53;;
57101;SDS011;42982;54.558;18.508;2022-08-25T02:22:52;10.10;;;4.75;;
57101;SDS011;42982;54.558;18.508;2022-08-25T02:23:54;9.48;;;5.00;;
57101;SDS011;42982;54.558;18.508;2022-08-25T02:24:57;9.82;;;4.88;;
57101;SDS011;42982;54.558;18.508;2022-08-25T02:26:02;11.70;;;5.50;;
57101;SDS011;42982;54.558;18.508;2022-08-25T02:27:05;10.77;;;4.72;;
57101;SDS011;42982;54.558;18.508;2022-08-25T02:28:10;12.57;;;5.20;;
57101;SDS011;42982;54.558;18.508;2022-08-25T02:29:14;10.10;;;5.10;;
57101;SDS011;42982;54.558;18.508;2022-08-25T02:30:16;9.13;;;5.35;;
57101;SDS011;42982;54.558;18.508;2022-08-25T02:31:19;8.27;;;4.72;;
57101;SDS011;42982;54.558;18.508;2022-08-25T02:32:32;10.38;;;5.10;;
57101;SDS011;42982;54.558;18.508;2022-08-25T02:33:39;11.98;;;5.13;;
57101;SDS011;42982;54.558;18.508;2022-08-25T02:34:47;12.02;;;4.80;;
57101;SDS011;42982;54.558;18.508;2022-08-25T02:35:55;14.18;;;5.07;;
57101;SDS011;42982;54.558;18.508;2022-08-25T02:37:00;13.52;;;5.00;;
57101;SDS011;42982;54.558;18.508;2022-08-25T02:38:05;23.40;;;7.13;;
57101;SDS011;42982;54.558;18.508;2022-08-25T02:39:07;11.82;;;5.00;;
57101;SDS011;42982;54.558;18.508;2022-08-25T02:40:13;10.40;;;5.30;;
57101;SDS011;42982;54.558;18.508;2022-08-25T02:41:18;14.02;;;4.90;;
57101;SDS011;42982;54.558;18.508;2022-08-25T02:42:25;10.48;;;4.97;;
57101;SDS011;42982;54.558;18.508;2022-08-25T02:43:34;10.25;;;4.72;;
57101;SDS011;42982;54.558;18.508;2022-08-25T02:44:36;13.73;;;4.88;;
57101;SDS011;42982;54.558;18.508;2022-08-25T02:45:40;8.27;;;4.53;;
57101;SDS011;42982;54.558;18.508;2022-08-25T02:46:48;11.38;;;5.03;;
57101;SDS011;42982;54.558;18.508;2022-08-25T02:47:54;13.13;;;4.85;;
57101;SDS011;42982;54.558;18.508;2022-08-25T02:48:56;15.52;;;4.65;;
57101;SDS011;42982;54.558;18.508;2022-08-25T02:49:59;13.23;;;5.18;;
57101;SDS011;42982;54.558;18.508;2022-08-25T02:51:04;9.98;;;4.95;;
57101;SDS011;42982;54.558;18.508;2022-08-25T02:52:09;7.78;;;4.80;;
57101;SDS011;42982;54.558;18.508;2022-08-25T02:53:13;13.65;;;4.95;;
57101;SDS011;42982;54.558;18.508;2022-08-25T02:54:16;14.25;;;5.05;;
57101;SDS011;42982;54.558;18.508;2022-08-25T02:55:24;16.95;;;4.97;;
57101;SDS011;42982;54.558;18.508;2022-08-25T02:56:26;8.60;;;5.10;;
57101;SDS011;42982;54.558;18.508;2022-08-25T02:57:28;14.43;;;4.53;;
57101;SDS011;42982;54.558;18.508;2022-08-25T02:58:32;14.35;;;4.60;;
57101;SDS011;42982;54.558;18.508;2022-08-25T02:59:37;9.20;;;4.35;;
57101;SDS011;42982;54.558;18.508;2022-08-25T03:00:39;11.38;;;4.68;;
57101;SDS011;42982;54.558;18.508;2022-08-25T03:01:44;10.63;;;4.60;;
57101;SDS011;42982;54.558;18.508;2022-08-25T03:02:46;10.50;;;4.72;;
57101;SDS011;42982;54.558;18.508;2022-08-25T03:03:49;10.82;;;4.63;;
57101;SDS011;42982;54.558;18.508;2022-08-25T03:04:54;14.63;;;5.30;;
57101;SDS011;42982;54.558;18.508;2022-08-25T03:05:59;10.93;;;4.47;;
57101;SDS011;42982;54.558;18.508;2022-08-25T03:07:02;11.98;;;4.60;;
57101;SDS011;42982;54.558;18.508;2022-08-25T03:08:08;13.73;;;5.18;;
57101;SDS011;42982;54.558;18.508;2022-08-25T03:09:19;13.15;;;4.50;;
57101;SDS011;42982;54.558;18.508;2022-08-25T03:10:22;8.55;;;4.13;;
57101;SDS011;42982;54.558;18.508;2022-08-25T03:11:24;12.80;;;4.93;;
57101;SDS011;42982;54.558;18.508;2022-08-25T03:12:28;14.88;;;4.43;;
57101;SDS011;42982;54.558;18.508;2022-08-25T03:13:31;9.70;;;4.32;;
57101;SDS011;42982;54.558;18.508;2022-08-25T03:14:32;7.72;;;4.47;;
57101;SDS011;42982;54.558;18.508;2022-08-25T03:15:35;12.30;;;4.88;;
57101;SDS011;42982;54.558;18.508;2022-08-25T03:17:49;14.02;;;4.90;;
57101;SDS011;42982;54.558;18.508;2022-08-25T03:18:55;14.13;;;4.70;;
57101;SDS011;42982;54.558;18.508;2022-08-25T03:19:59;13.27;;;4.60;;
57101;SDS011;42982;54.558;18.508;2022-08-25T03:21:02;12.70;;;4.63;;
57101;SDS011;42982;54.558;18.508;2022-08-25T03:22:06;13.25;;;4.72;;
57101;SDS011;42982;54.558;18.508;2022-08-25T03:23:12;8.30;;;4.70;;
57101;SDS011;42982;54.558;18.508;2022-08-25T03:24:17;13.52;;;3.85;;
57101;SDS011;42982;54.558;18.508;2022-08-25T03:25:24;9.57;;;3.75;;
57101;SDS011;42982;54.558;18.508;2022-08-25T03:26:48;13.40;;;4.88;;
57101;SDS011;42982;54.558;18.508;2022-08-25T03:27:56;10.80;;;4.80;;
57101;SDS011;42982;54.558;18.508;2022-08-25T03:29:00;14.77;;;5.03;;
57101;SDS011;42982;54.558;18.508;2022-08-25T03:30:05;15.82;;;5.72;;
57101;SDS011;42982;54.558;18.508;2022-08-25T03:31:09;16.17;;;5.10;;
57101;SDS011;42982;54.558;18.508;2022-08-25T03:32:11;10.73;;;4.40;;
57101;SDS011;42982;54.558;18.508;2022-08-25T03:33:18;8.85;;;4.60;;
57101;SDS011;42982;54.558;18.508;2022-08-25T03:34:21;10.02;;;4.78;;
57101;SDS011;42982;54.558;18.508;2022-08-25T03:35:26;12.00;;;4.57;;
57101;SDS011;42982;54.558;18.508;2022-08-25T03:36:30;10.00;;;4.53;;
57101;SDS011;42982;54.558;18.508;2022-08-25T03:37:33;11.38;;;4.75;;
57101;SDS011;42982;54.558;18.508;2022-08-25T03:38:35;11.45;;;4.35;;
57101;SDS011;42982;54.558;18.508;2022-08-25T03:39:40;8.77;;;4.43;;
57101;SDS011;42982;54.558;18.508;2022-08-25T03:40:42;12.02;;;4.45;;
57101;SDS011;42982;54.558;18.508;2022-08-25T03:41:50;7.93;;;4.50;;
57101;SDS011;42982;54.558;18.508;2022-08-25T03:42:53;15.32;;;5.30;;
57101;SDS011;42982;54.558;18.508;2022-08-25T03:43:58;12.13;;;4.78;;
57101;SDS011;42982;54.558;18.508;2022-08-25T03:45:03;12.30;;;4.88;;
57101;SDS011;42982;54.558;18.508;2022-08-25T03:46:05;11.88;;;5.05;;
57101;SDS011;42982;54.558;18.508;2022-08-25T03:47:10;8.90;;;4.60;;
57101;SDS011;42982;54.558;18.508;2022-08-25T03:48:16;14.50;;;4.72;;
57101;SDS011;42982;54.558;18.508;2022-08-25T03:49:20;12.82;;;4.82;;
57101;SDS011;42982;54.558;18.508;2022-08-25T03:50:25;12.93;;;5.18;;
57101;SDS011;42982;54.558;18.508;2022-08-25T03:51:31;13.10;;;4.60;;
57101;SDS011;42982;54.558;18.508;2022-08-25T03:52:38;13.35;;;5.13;;
57101;SDS011;42982;54.558;18.508;2022-08-25T03:53:46;14.48;;;5.22;;
57101;SDS011;42982;54.558;18.508;2022-08-25T03:54:47;8.43;;;4.15;;
57101;SDS011;42982;54.558;18.508;2022-08-25T03:55:55;9.48;;;4.00;;
57101;SDS011;42982;54.558;18.508;2022-08-25T03:57:00;9.57;;;4.30;;
57101;SDS011;42982;54.558;18.508;2022-08-25T03:58:08;15.05;;;5.50;;
57101;SDS011;42982;54.558;18.508;2022-08-25T03:59:16;14.90;;;5.30;;
57101;SDS011;42982;54.558;18.508;2022-08-25T04:00:21;11.40;;;5.13;;
57101;SDS011;42982;54.558;18.508;2022-08-25T04:01:23;15.25;;;5.15;;
57101;SDS011;42982;54.558;18.508;2022-08-25T04:02:26;16.17;;;4.80;;
57101;SDS011;42982;54.558;18.508;2022-08-25T04:03:32;9.27;;;4.75;;
57101;SDS011;42982;54.558;18.508;2022-08-25T04:04:35;10.60;;;4.75;;
57101;SDS011;42982;54.558;18.508;2022-08-25T04:05:40;9.25;;;5.10;;
57101;SDS011;42982;54.558;18.508;2022-08-25T04:06:47;13.20;;;5.10;;
57101;SDS011;42982;54.558;18.508;2022-08-25T04:07:50;7.38;;;4.35;;
57101;SDS011;42982;54.558;18.508;2022-08-25T04:08:58;12.15;;;4.90;;
57101;SDS011;42982;54.558;18.508;2022-08-25T04:10:02;12.70;;;5.10;;
57101;SDS011;42982;54.558;18.508;2022-08-25T04:11:16;11.43;;;4.72;;
57101;SDS011;42982;54.558;18.508;2022-08-25T04:13:23;12.63;;;4.63;;
57101;SDS011;42982;54.558;18.508;2022-08-25T04:14:25;13.95;;;4.88;;
57101;SDS011;42982;54.558;18.508;2022-08-25T04:15:30;14.27;;;4.43;;
57101;SDS011;42982;54.558;18.508;2022-08-25T04:16:35;15.45;;;5.25;;
57101;SDS011;42982;54.558;18.508;2022-08-25T04:17:40;11.70;;;4.90;;
57101;SDS011;42982;54.558;18.508;2022-08-25T04:18:48;11.05;;;4.72;;
57101;SDS011;42982;54.558;18.508;2022-08-25T04:19:53;12.32;;;4.65;;
57101;SDS011;42982;54.558;18.508;2022-08-25T04:21:03;13.60;;;4.72;;
57101;SDS011;42982;54.558;18.508;2022-08-25T04:22:05;17.00;;;5.95;;
57101;SDS011;42982;54.558;18.508;2022-08-25T04:23:13;10.32;;;4.60;;
57101;SDS011;42982;54.558;18.508;2022-08-25T04:24:18;14.07;;;5.60;;
57101;SDS011;42982;54.558;18.508;2022-08-25T04:25:22;14.13;;;5.28;;
57101;SDS011;42982;54.558;18.508;2022-08-25T04:26:29;13.30;;;5.15;;
57101;SDS011;42982;54.558;18.508;2022-08-25T04:27:34;9.93;;;4.88;;
57101;SDS011;42982;54.558;18.508;2022-08-25T04:28:37;16.63;;;4.70;;
57101;SDS011;42982;54.558;18.508;2022-08-25T04:29:39;15.70;;;4.22;;
57101;SDS011;42982;54.558;18.508;2022-08-25T04:30:47;10.02;;;4.38;;
57101;SDS011;42982;54.558;18.508;2022-08-25T04:31:52;13.43;;;4.38;;
57101;SDS011;42982;54.558;18.508;2022-08-25T04:32:55;15.13;;;4.68;;
57101;SDS011;42982;54.558;18.508;2022-08-25T04:34:03;11.00;;;4.60;;
57101;SDS011;42982;54.558;18.508;2022-08-25T04:35:08;14.55;;;4.20;;
57101;SDS011;42982;54.558;18.508;2022-08-25T04:36:11;14.15;;;4.90;;
57101;SDS011;42982;54.558;18.508;2022-08-25T04:37:13;9.77;;;4.57;;
57101;SDS011;42982;54.558;18.508;2022-08-25T04:38:15;11.25;;;4.88;;
57101;SDS011;42982;54.558;18.508;2022-08-25T04:39:17;12.23;;;4.32;;
57101;SDS011;42982;54.558;18.508;2022-08-25T04:40:20;10.32;;;4.30;;
57101;SDS011;42982;54.558;18.508;2022-08-25T04:41:28;12.68;;;4.60;;
57101;SDS011;42982;54.558;18.508;2022-08-25T04:42:31;13.05;;;5.28;;
57101;SDS011;42982;54.558;18.508;2022-08-25T04:43:39;10.52;;;4.15;;
57101;SDS011;42982;54.558;18.508;2022-08-25T04:44:43;12.80;;;4.88;;
57101;SDS011;42982;54.558;18.508;2022-08-25T04:45:48;11.25;;;5.10;;
57101;SDS011;42982;54.558;18.508;2022-08-25T04:46:50;16.15;;;4.60;;
57101;SDS011;42982;54.558;18.508;2022-08-25T04:47:57;12.52;;;4.60;;
57101;SDS011;42982;54.558;18.508;2022-08-25T04:49:03;11.48;;;5.00;;
57101;SDS011;42982;54.558;18.508;2022-08-25T04:50:07;16.40;;;4.60;;
57101;SDS011;42982;54.558;18.508;2022-08-25T04:51:13;11.43;;;4.20;;
57101;SDS011;42982;54.558;18.508;2022-08-25T04:52:19;13.30;;;4.95;;
57101;SDS011;42982;54.558;18.508;2022-08-25T04:53:21;11.32;;;4.90;;
57101;SDS011;42982;54.558;18.508;2022-08-25T04:54:28;17.15;;;4.30;;
57101;SDS011;42982;54.558;18.508;2022-08-25T04:55:39;23.35;;;5.43;;
57101;SDS011;42982;54.558;18.508;2022-08-25T04:56:45;7.03;;;4.30;;
57101;SDS011;42982;54.558;18.508;2022-08-25T04:57:52;16.10;;;5.53;;
57101;SDS011;42982;54.558;18.508;2022-08-25T04:58:59;16.50;;;4.63;;
57101;SDS011;42982;54.558;18.508;2022-08-25T05:00:05;12.27;;;4.80;;
57101;SDS011;42982;54.558;18.508;2022-08-25T05:01:12;13.35;;;4.47;;
57101;SDS011;42982;54.558;18.508;2022-08-25T05:02:17;13.00;;;4.60;;
57101;SDS011;42982;54.558;18.508;2022-08-25T05:03:22;12.27;;;4.55;;
57101;SDS011;42982;54.558;18.508;2022-08-25T05:04:30;21.55;;;5.32;;
57101;SDS011;42982;54.558;18.508;2022-08-25T05:05:35;9.70;;;4.60;;
57101;SDS011;42982;54.558;18.508;2022-08-25T05:06:37;10.65;;;4.35;;
57101;SDS011;42982;54.558;18.508;2022-08-25T05:07:40;14.18;;;4.30;;
57101;SDS011;42982;54.558;18.508;2022-08-25T05:08:51;12.05;;;4.45;;
57101;SDS011;42982;54.558;18.508;2022-08-25T05:09:53;12.98;;;3.88;;
57101;SDS011;42982;54.558;18.508;2022-08-25T05:10:57;14.45;;;4.32;;
57101;SDS011;42982;54.558;18.508;2022-08-25T05:12:01;16.38;;;4.35;;
57101;SDS011;42982;54.558;18.508;2022-08-25T05:13:05;17.35;;;4.68;;
57101;SDS011;42982;54.558;18.508;2022-08-25T05:14:15;13.32;;;4.30;;
57101;SDS011;42982;54.558;18.508;2022-08-25T05:15:21;13.30;;;4.18;;
57101;SDS011;42982;54.558;18.508;2022-08-25T05:16:44;10.52;;;4.50;;
57101;SDS011;42982;54.558;18.508;2022-08-25T05:17:46;11.55;;;4.45;;
57101;SDS011;42982;54.558;18.508;2022-08-25T05:18:51;15.07;;;4.03;;
57101;SDS011;42982;54.558;18.508;2022-08-25T05:20:00;12.18;;;4.40;;
57101;SDS011;42982;54.558;18.508;2022-08-25T05:21:12;11.75;;;4.63;;
57101;SDS011;42982;54.558;18.508;2022-08-25T05:22:19;16.13;;;4.55;;
57101;SDS011;42982;54.558;18.508;2022-08-25T05:23:24;13.15;;;4.40;;
57101;SDS011;42982;54.558;18.508;2022-08-25T05:24:28;13.45;;;4.07;;
57101;SDS011;42982;54.558;18.508;2022-08-25T05:25:33;10.27;;;4.60;;
57101;SDS011;42982;54.558;18.508;2022-08-25T05:26:36;14.32;;;4.25;;
57101;SDS011;42982;54.558;18.508;2022-08-25T05:27:41;10.20;;;4.38;;
57101;SDS011;42982;54.558;18.508;2022-08-25T05:28:43;14.20;;;4.85;;
57101;SDS011;42982;54.558;18.508;2022-08-25T05:29:49;14.55;;;4.57;;
57101;SDS011;42982;54.558;18.508;2022-08-25T05:30:58;8.88;;;4.28;;
57101;SDS011;42982;54.558;18.508;2022-08-25T05:32:01;16.63;;;4.32;;
57101;SDS011;42982;54.558;18.508;2022-08-25T05:33:10;12.43;;;4.55;;
57101;SDS011;42982;54.558;18.508;2022-08-25T05:34:16;10.52;;;4.40;;
57101;SDS011;42982;54.558;18.508;2022-08-25T05:35:21;11.05;;;4.57;;
57101;SDS011;42982;54.558;18.508;2022-08-25T05:36:24;10.70;;;3.78;;
57101;SDS011;42982;54.558;18.508;2022-08-25T05:37:34;12.30;;;4.70;;
57101;SDS011;42982;54.558;18.508;2022-08-25T05:38:37;13.02;;;4.28;;
57101;SDS011;42982;54.558;18.508;2022-08-25T05:39:41;11.80;;;4.40;;
57101;SDS011;42982;54.558;18.508;2022-08-25T05:40:43;12.15;;;4.75;;
57101;SDS011;42982;54.558;18.508;2022-08-25T05:41:45;15.57;;;3.92;;
57101;SDS011;42982;54.558;18.508;2022-08-25T05:42:47;10.85;;;4.80;;
57101;SDS011;42982;54.558;18.508;2022-08-25T05:43:52;10.77;;;4.38;;
57101;SDS011;42982;54.558;18.508;2022-08-25T05:44:59;9.60;;;4.03;;
57101;SDS011;42982;54.558;18.508;2022-08-25T05:47:10;15.20;;;4.43;;
57101;SDS011;42982;54.558;18.508;2022-08-25T05:48:14;15.45;;;4.05;;
57101;SDS011;42982;54.558;18.508;2022-08-25T05:49:17;12.10;;;4.03;;
57101;SDS011;42982;54.558;18.508;2022-08-25T05:50:20;11.18;;;4.43;;
57101;SDS011;42982;54.558;18.508;2022-08-25T05:51:23;9.52;;;4.97;;
57101;SDS011;42982;54.558;18.508;2022-08-25T05:52:27;13.63;;;4.72;;
57101;SDS011;42982;54.558;18.508;2022-08-25T05:53:35;12.13;;;4.18;;
57101;SDS011;42982;54.558;18.508;2022-08-25T05:54:41;9.15;;;4.30;;
57101;SDS011;42982;54.558;18.508;2022-08-25T05:55:46;12.10;;;4.30;;
57101;SDS011;42982;54.558;18.508;2022-08-25T05:56:50;15.50;;;4.95;;
57101;SDS011;42982;54.558;18.508;2022-08-25T05:57:52;9.43;;;4.07;;
57101;SDS011;42982;54.558;18.508;2022-08-25T05:59:02;13.48;;;4.30;;
57101;SDS011;42982;54.558;18.508;2022-08-25T06:00:08;8.93;;;4.78;;
57101;SDS011;42982;54.558;18.508;2022-08-25T06:01:20;12.23;;;4.40;;
57101;SDS011;42982;54.558;18.508;2022-08-25T06:02:43;13.95;;;4.15;;
57101;SDS011;42982;54.558;18.508;2022-08-25T06:03:50;18.20;;;4.47;;
57101;SDS011;42982;54.558;18.508;2022-08-25T06:04:53;11.68;;;4.72;;
57101;SDS011;42982;54.558;18.508;2022-08-25T06:06:05;10.43;;;3.78;;
57101;SDS011;42982;54.558;18.508;2022-08-25T06:07:11;8.60;;;3.78;;
57101;SDS011;42982;54.558;18.508;2022-08-25T06:08:16;10.38;;;4.18;;
57101;SDS011;42982;54.558;18.508;2022-08-25T06:09:19;9.80;;;3.85;;
57101;SDS011;42982;54.558;18.508;2022-08-25T06:10:29;9.63;;;4.32;;
57101;SDS011;42982;54.558;18.508;2022-08-25T06:11:30;13.48;;;4.32;;
57101;SDS011;42982;54.558;18.508;2022-08-25T06:12:32;12.35;;;5.07;;
57101;SDS011;42982;54.558;18.508;2022-08-25T06:13:37;14.90;;;5.00;;
57101;SDS011;42982;54.558;18.508;2022-08-25T06:14:42;13.77;;;4.60;;
57101;SDS011;42982;54.558;18.508;2022-08-25T06:15:46;20.85;;;5.05;;
57101;SDS011;42982;54.558;18.508;2022-08-25T06:16:57;13.63;;;4.68;;
57101;SDS011;42982;54.558;18.508;2022-08-25T06:18:06;11.90;;;4.95;;
57101;SDS011;42982;54.558;18.508;2022-08-25T06:19:08;14.07;;;4.75;;
57101;SDS011;42982;54.558;18.508;2022-08-25T06:20:12;13.90;;;4.53;;
57101;SDS011;42982;54.558;18.508;2022-08-25T06:21:17;13.75;;;4.38;;
57101;SDS011;42982;54.558;18.508;2022-08-25T06:22:22;10.43;;;4.28;;
57101;SDS011;42982;54.558;18.508;2022-08-25T06:23:26;10.70;;;4.13;;
57101;SDS011;42982;54.558;18.508;2022-08-25T06:24:30;15.68;;;4.93;;
57101;SDS011;42982;54.558;18.508;2022-08-25T06:25:33;9.40;;;4.53;;
57101;SDS011;42982;54.558;18.508;2022-08-25T06:26:38;11.18;;;4.60;;
57101;SDS011;42982;54.558;18.508;2022-08-25T06:27:40;11.13;;;4.72;;
57101;SDS011;42982;54.558;18.508;2022-08-25T06:28:45;13.63;;;4.40;;
57101;SDS011;42982;54.558;18.508;2022-08-25T06:29:49;13.93;;;5.05;;
57101;SDS011;42982;54.558;18.508;2022-08-25T06:30:58;9.43;;;4.15;;
57101;SDS011;42982;54.558;18.508;2022-08-25T06:33:08;12.88;;;4.53;;